Time;durP1;ratioP1;P1;durP2;ratioP2;P2;SDS_P1;SDS_P2;PMS_P1;PMS_P2;Temp;Humidity;BMP_temperature;BMP_pressure;BME280_temperature;BME280_humidity;BME280_pressure;Samples;Min_cycle;Max_cycle;Signal;HPM_P1;HPM_P2
2022/12/22 03:26:32;;;;;;;102.35;70.78;;;;;;;;;;5032448;28;20056;-68
2022/12/22 03:29:36;;;;;;;100.32;68.05;;;;;;;;;;5032422;28;20037;-68
2022/12/22 03:32:41;;;;;;;96.72;67.28;;;;;;;;;;5032626;28;20501;-68
2022/12/22 03:35:45;;;;;;;99.22;67.85;;;;;;;;;;5032225;28;20284;-69
2022/12/22 03:38:49;;;;;;;97.57;66.57;;;;;;;;;;5032381;28;20056;-69
2022/12/22 03:48:39;;;;;;;96.13;66.30;;;;;;;;;;5032406;28;20044;-69
2022/12/22 03:51:46;;;;;;;94.03;65.88;;;12.00;99.90;;;;;;5032156;28;20045;-69
2022/12/22 03:54:50;;;;;;;94.90;67.38;;;;;;;;;;5031901;28;20048;-69
2022/12/22 03:57:55;;;;;;;90.30;64.38;;;;;;;;;;5032509;28;20056;-69
2022/12/22 04:01:06;;;;;;;97.13;67.25;;;11.80;99.90;;;;;;5031870;28;20060;-68
2022/12/22 04:04:12;;;;;;;102.22;66.00;;;11.80;99.90;;;;;;5030960;28;20044;-68
2022/12/22 04:07:16;;;;;;;88.35;64.30;;;;;;;;;;5042595;28;20061;-68
2022/12/22 04:13:44;;;;;;;85.22;61.67;;;;;;;;;;5032026;28;20060;-68
2022/12/22 04:16:48;;;;;;;88.50;61.28;;;11.80;99.90;;;;;;5031956;28;20053;-69
2022/12/22 04:19:52;;;;;;;85.43;61.60;;;;;;;;;;5031456;28;20044;-68
2022/12/22 04:22:57;;;;;;;102.28;63.40;;;11.90;99.90;;;;;;5031163;28;20292;-68
2022/12/22 04:26:02;;;;;;;91.72;63.55;;;;;;;;;;5031372;28;20409;-69
2022/12/22 04:29:06;;;;;;;88.47;63.78;;;;;;;;;;5031350;28;20044;-68
2022/12/22 04:32:10;;;;;;;83.97;61.38;;;;;;;;;;5031465;28;20053;-68
2022/12/22 04:35:15;;;;;;;85.15;59.20;;;;;;;;;;5031631;28;20044;-68
2022/12/22 04:38:19;;;;;;;86.88;59.38;;;;;;;;;;5031585;28;20052;-68
2022/12/22 04:41:24;;;;;;;83.78;62.08;;;;;;;;;;5031514;28;20425;-68
2022/12/22 04:44:28;;;;;;;88.07;62.13;;;;;;;;;;5031415;28;20052;-68
2022/12/22 04:47:32;;;;;;;89.78;62.50;;;;;;;;;;5031445;28;20397;-68
2022/12/22 04:50:36;;;;;;;88.80;61.47;;;9.80;99.90;;;;;;5031018;28;20108;-68
2022/12/22 04:53:40;;;;;;;83.05;62.30;;;;;;;;;;5031009;28;20048;-69
2022/12/22 04:56:45;;;;;;;94.47;62.10;;;;;;;;;;5030956;28;20057;-69
2022/12/22 04:59:49;;;;;;;89.70;61.60;;;;;;;;;;5031041;28;20389;-70
2022/12/22 05:02:54;;;;;;;87.22;61.78;;;;;;;;;;5031000;28;20052;-70
2022/12/22 05:05:58;;;;;;;90.93;60.90;;;;;;;;;;5041403;28;20060;-69
2022/12/22 05:09:02;;;;;;;86.00;61.88;;;;;;;;;;5030886;28;20051;-69
2022/12/22 05:15:32;;;;;;;87.85;61.30;;;10.30;99.90;;;;;;5031134;28;20040;-69
2022/12/22 05:18:37;;;;;;;87.40;60.63;;;11.80;99.90;;;;;;5030891;28;20048;-67
2022/12/22 05:21:41;;;;;;;83.78;58.90;;;;;;;;;;5030965;28;20048;-68
2022/12/22 05:24:45;;;;;;;80.00;56.90;;;11.80;99.90;;;;;;5030778;28;20056;-68
2022/12/22 05:27:50;;;;;;;82.75;57.90;;;11.80;99.90;;;;;;5030963;28;20048;-68
2022/12/22 05:30:54;;;;;;;87.40;58.55;;;11.20;99.90;;;;;;5030109;28;20052;-68
2022/12/22 05:33:58;;;;;;;82.78;58.83;;;12.90;99.90;;;;;;5030930;28;20048;-68
2022/12/22 05:37:02;;;;;;;91.43;59.70;;;;;;;;;;5034574;28;20040;-68
2022/12/22 05:40:07;;;;;;;87.72;60.42;;;13.30;99.90;;;;;;5034371;28;20045;-70
2022/12/22 05:43:11;;;;;;;90.32;59.22;;;;;;;;;;5034411;28;20188;-69
2022/12/22 05:46:16;;;;;;;90.07;60.53;;;11.80;99.90;;;;;;5034828;28;20053;-69
2022/12/22 05:49:20;;;;;;;92.70;64.10;;;;;;;;;;5034476;28;20049;-69
2022/12/22 05:52:24;;;;;;;81.80;59.85;;;;;;;;;;5034647;28;20040;-69
2022/12/22 05:55:28;;;;;;;85.05;58.83;;;;;;;;;;5034062;28;20053;-68
2022/12/22 05:58:34;;;;;;;83.60;59.85;;;12.00;99.90;;;;;;5034310;28;20064;-68
2022/12/22 06:01:39;;;;;;;79.15;55.70;;;;;;;;;;5034092;28;20044;-68
2022/12/22 06:04:43;;;;;;;77.15;55.80;;;;;;;;;;5034148;28;20064;-68
2022/12/22 06:07:47;;;;;;;78.55;55.13;;;;;;;;;;5044768;28;20121;-68
2022/12/22 06:10:53;;;;;;;79.18;54.20;;;10.60;99.90;;;;;;5033869;28;20040;-68
2022/12/22 06:13:58;;;;;;;77.18;53.95;;;;;;;;;;5034092;28;20053;-68
2022/12/22 06:17:02;;;;;;;73.20;51.80;;;;;;;;;;5033848;28;20409;-67
2022/12/22 06:20:07;;;;;;;75.82;52.28;;;11.90;99.90;;;;;;5033778;28;20049;-68
2022/12/22 06:23:11;;;;;;;74.03;51.13;;;11.80;99.90;;;;;;5044609;28;20041;-68
2022/12/22 06:26:15;;;;;;;74.05;50.50;;;12.00;99.90;;;;;;5033504;28;20068;-68
2022/12/22 06:29:19;;;;;;;82.50;56.13;;;13.40;99.90;;;;;;5033584;28;20060;-61
2022/12/22 06:32:24;;;;;;;94.70;61.55;;;;;;;;;;5033446;28;20045;-61
2022/12/22 06:35:28;;;;;;;100.28;64.47;;;;;;;;;;5033326;28;20045;-62
2022/12/22 06:38:32;;;;;;;96.72;66.25;;;11.90;99.90;;;;;;5033169;28;20401;-61
2022/12/22 06:44:58;;;;;;;116.88;76.18;;;10.60;99.90;;;;;;5033328;28;20401;-62
2022/12/22 06:48:03;;;;;;;119.60;75.95;;;12.00;99.90;;;;;;5032000;28;20516;-62
2022/12/22 06:51:08;;;;;;;100.03;67.45;;;;;;;;;;5033201;28;20037;-63
2022/12/22 06:54:12;;;;;;;94.28;62.63;;;;;;;;;;5033249;28;20128;-63
2022/12/22 06:57:16;;;;;;;79.93;56.20;;;12.90;99.90;;;;;;5032746;28;20409;-63
2022/12/22 07:00:21;;;;;;;85.30;56.50;;;;;;;;;;5033134;28;20053;-61
2022/12/22 07:03:25;;;;;;;85.20;56.38;;;;;;;;;;5033201;28;20048;-61
2022/12/22 07:06:29;;;;;;;94.60;58.38;;;10.40;99.90;;;;;;5033060;28;20060;-61
2022/12/22 07:09:33;;;;;;;87.75;57.33;;;14.60;99.90;;;;;;5043740;28;20076;-62
2022/12/22 07:12:38;;;;;;;86.97;55.92;;;;;;;;;;5033049;28;20144;-62
2022/12/22 07:15:41;;;;;;;83.40;56.40;;;8.50;99.90;;;;;;5032923;28;20418;-62
2022/12/22 07:18:46;;;;;;;83.65;54.50;;;;;;;;;;5032714;28;20044;-62
2022/12/22 07:21:50;;;;;;;84.03;55.20;;;12.40;99.90;;;;;;5032744;28;20143;-62
2022/12/22 07:24:54;;;;;;;89.43;57.42;;;11.10;99.90;;;;;;5030810;28;20052;-62
2022/12/22 07:27:57;;;;;;;96.45;58.55;;;12.20;99.90;;;;;;5032402;28;20268;-63
2022/12/22 07:31:20;;;;;;;81.85;55.70;;;14.20;99.90;;;;;;5032080;28;20536;-63
2022/12/22 07:34:43;;;;;;;85.72;53.22;;;;;;;;;;5032197;28;20060;-63
2022/12/22 07:37:48;;;;;;;83.88;51.90;;;10.60;99.90;;;;;;5032303;28;20048;-62
2022/12/22 07:40:57;;;;;;;77.32;53.42;;;12.30;99.90;;;;;;5032606;28;20068;-62
2022/12/22 07:44:02;;;;;;;75.80;50.03;;;14.30;99.90;;;;;;5032333;28;20401;-62
2022/12/22 07:47:06;;;;;;;80.82;50.85;;;9.60;99.90;;;;;;5032065;28;20056;-65
2022/12/22 07:50:31;;;;;;;98.25;50.60;;;13.00;99.90;;;;;;5032293;28;20041;-62
2022/12/22 07:53:35;;;;;;;65.78;46.10;;;12.50;99.90;;;;;;5031780;28;20044;-60
2022/12/22 07:56:59;;;;;;;64.63;44.60;;;;;;;;;;5031930;28;20392;-61
2022/12/22 08:00:22;;;;;;;63.50;42.45;;;13.00;99.90;;;;;;5031592;28;20045;-60
2022/12/22 08:03:26;;;;;;;62.08;40.50;;;12.50;99.90;;;;;;5031746;28;20524;-62
2022/12/22 08:06:49;;;;;;;61.35;41.85;;;12.70;99.90;;;;;;5031506;28;20060;-62
2022/12/22 08:10:12;;;;;;;79.85;52.45;;;13.00;99.90;;;;;;5031569;28;20771;-62
2022/12/22 08:13:36;;;;;;;77.30;47.75;;;12.90;99.90;;;;;;5031512;28;20620;-62
2022/12/22 08:16:40;;;;;;;62.80;42.22;;;13.00;99.90;;;;;;5031290;28;20049;-63
2022/12/22 08:20:04;;;;;;;68.10;43.42;;;12.00;99.90;;;;;;5031340;28;20068;-63
2022/12/22 08:23:08;;;;;;;58.38;41.28;;;13.10;99.90;;;;;;5031304;28;20049;-63
2022/12/22 08:26:38;;;;;;;56.97;38.17;;;15.40;99.90;;;;;;5030828;28;20072;-62
2022/12/22 08:30:01;;;;;;;67.18;41.47;;;13.20;99.90;;;;;;5031265;28;20393;-62
2022/12/22 08:33:05;;;;;;;66.70;43.28;;;13.20;99.90;;;;;;5031006;28;20052;-63
2022/12/22 08:36:30;;;;;;;55.67;31.35;;;13.30;99.90;;;;;;5031078;28;20040;-63
2022/12/22 08:40:00;;;;;;;47.75;32.35;;;13.40;99.90;;;;;;5030927;28;20056;-62
2022/12/22 08:43:24;;;;;;;48.92;32.75;;;13.50;99.90;;;;;;5031007;28;20036;-63
2022/12/22 08:46:48;;;;;;;47.40;32.13;;;13.50;99.90;;;;;;5030685;28;20057;-62
2022/12/22 08:49:52;;;;;;;47.15;31.95;;;13.60;99.90;;;;;;5030437;28;20512;-65
2022/12/22 08:53:04;;;;;;;42.63;29.40;;;13.70;99.90;;;;;;5031149;28;20049;-62
2022/12/22 08:56:08;;;;;;;46.00;29.35;;;13.70;99.90;;;;;;5030601;28;20048;-63
2022/12/22 08:59:13;;;;;;;49.17;29.38;;;13.70;99.90;;;;;;5030691;28;20049;-62
2022/12/22 09:02:17;;;;;;;47.33;30.35;;;13.80;99.90;;;;;;5030885;28;20504;-63
2022/12/22 09:05:21;;;;;;;41.13;30.00;;;13.80;99.90;;;;;;5030593;28;20189;-63
2022/12/22 09:08:25;;;;;;;47.85;31.73;;;13.80;99.90;;;;;;5028258;28;20053;-64
2022/12/22 09:11:29;;;;;;;45.33;31.98;;;13.90;99.90;;;;;;5029406;28;20044;-64
2022/12/22 09:14:34;;;;;;;46.22;31.27;;;13.90;99.90;;;;;;5029437;28;20401;-64
2022/12/22 09:17:38;;;;;;;41.28;30.25;;;13.90;99.90;;;;;;5029063;28;20044;-63
2022/12/22 09:20:42;;;;;;;39.03;28.23;;;14.00;99.90;;;;;;5030949;28;20068;-63
2022/12/22 09:23:45;;;;;;;43.00;29.83;;;14.10;99.90;;;;;;5030649;28;20056;-63
2022/12/22 09:26:49;;;;;;;39.42;29.42;;;14.00;99.90;;;;;;5030517;28;20053;-64
2022/12/22 09:29:53;;;;;;;47.38;29.50;;;14.10;99.90;;;;;;5030453;28;20504;-63
2022/12/22 09:32:57;;;;;;;44.22;30.45;;;14.10;99.90;;;;;;5030643;28;20044;-63
2022/12/22 09:36:09;;;;;;;48.22;31.30;;;14.10;99.90;;;;;;5030187;28;20060;-63
2022/12/22 09:39:14;;;;;;;51.75;36.45;;;14.10;99.90;;;;;;5030399;28;20516;-64
2022/12/22 09:42:20;;;;;;;876.83;110.30;;;14.10;99.90;;;;;;5030373;28;20200;-65
2022/12/22 09:45:24;;;;;;;52.80;33.40;;;14.10;99.90;;;;;;5029375;28;20456;-65
2022/12/22 09:48:35;;;;;;;53.20;35.67;;;14.10;99.90;;;;;;5030582;28;20064;-65
2022/12/22 09:51:48;;;;;;;45.42;30.73;;;14.00;99.90;;;;;;5029228;28;20045;-64
2022/12/22 09:54:52;;;;;;;43.25;27.92;;;14.00;99.90;;;;;;5030333;28;20056;-61
2022/12/22 09:57:56;;;;;;;39.63;27.48;;;14.10;99.90;;;;;;5030492;28;20056;-62
2022/12/22 10:01:29;;;;;;;40.63;28.30;;;14.10;99.90;;;;;;5030289;28;20060;-62
2022/12/22 10:04:45;;;;;;;42.58;30.38;;;14.10;99.90;;;;;;5030319;28;20099;-62
2022/12/22 10:07:49;;;;;;;44.40;30.92;;;14.10;99.90;;;;;;5040815;28;20064;-62
2022/12/22 10:10:54;;;;;;;44.53;30.13;;;14.10;99.90;;;;;;5030288;28;20072;-63
2022/12/22 10:13:59;;;;;;;45.08;31.30;;;14.00;99.90;;;;;;5030221;28;20044;-63
2022/12/22 10:17:18;;;;;;;48.28;30.60;;;14.00;99.90;;;;;;5029934;28;20049;-62
2022/12/22 10:20:25;;;;;;;41.47;28.13;;;14.00;99.90;;;;;;5030096;28;20049;-62
2022/12/22 10:23:30;;;;;;;32.85;25.52;;;14.10;99.90;;;;;;5033658;28;20048;-63
2022/12/22 10:26:34;;;;;;;39.67;26.50;;;14.10;99.90;;;;;;5033390;28;20057;-63
2022/12/22 10:29:38;;;;;;;43.03;27.67;;;14.10;99.90;;;;;;5033608;28;20045;-64
2022/12/22 10:32:42;;;;;;;40.90;28.20;;;14.10;99.90;;;;;;5033895;28;20044;-63
2022/12/22 10:35:55;;;;;;;41.05;27.10;;;14.20;99.90;;;;;;5033659;28;20064;-65
2022/12/22 10:39:06;;;;;;;40.80;27.67;;;14.20;99.90;;;;;;5033468;28;20074;-64
2022/12/22 10:42:13;;;;;;;45.80;29.63;;;14.20;99.90;;;;;;5033475;28;20543;-65
2022/12/22 10:45:22;;;;;;;47.97;33.75;;;14.30;99.90;;;;;;5033164;28;20778;-65
2022/12/22 10:48:29;;;;;;;47.50;30.55;;;14.30;99.90;;;;;;5033011;28;20132;-64
2022/12/22 10:51:33;;;;;;;36.85;24.58;;;14.40;99.90;;;;;;5033260;28;20044;-63
2022/12/22 10:54:41;;;;;;;44.83;25.35;;;14.60;99.90;;;;;;5033588;28;20052;-64
2022/12/22 10:57:45;;;;;;;31.48;23.63;;;14.70;99.90;;;;;;5033264;28;20393;-63
2022/12/22 11:01:03;;;;;;;25.77;19.20;;;14.80;99.90;;;;;;5033398;28;20048;-63
2022/12/22 11:04:22;;;;;;;27.17;19.05;;;14.80;99.90;;;;;;5033449;28;20398;-63
2022/12/22 11:07:29;;;;;;;27.40;17.38;;;14.90;99.90;;;;;;5032624;28;20060;-60
2022/12/22 11:10:57;;;;;;;22.65;16.48;;;14.90;99.90;;;;;;5032132;28;20044;-61
2022/12/22 11:14:23;;;;;;;24.15;16.45;;;14.80;99.90;;;;;;5032575;28;20516;-60
2022/12/22 11:17:45;;;;;;;32.88;18.83;;;14.80;99.90;;;;;;5032900;28;20064;-64
2022/12/22 11:20:52;;;;;;;22.83;16.40;;;14.80;99.90;;;;;;5032830;28;20044;-64
2022/12/22 11:24:09;;;;;;;24.20;18.33;;;14.70;99.90;;;;;;5032447;28;20041;-63
2022/12/22 11:27:43;;;;;;;32.67;21.95;;;14.70;99.90;;;;;;5032697;28;20557;-63
2022/12/22 11:31:16;;;;;;;27.17;19.33;;;14.70;99.90;;;;;;5032756;28;20048;-65
2022/12/22 11:34:36;;;;;;;28.02;19.05;;;14.70;99.90;;;;;;5031949;28;20512;-62
2022/12/22 11:37:48;;;;;;;25.23;17.55;;;14.60;99.90;;;;;;5031894;28;20048;-63
2022/12/22 11:41:31;;;;;;;32.05;21.23;;;14.60;99.90;;;;;;5031901;28;20068;-63
2022/12/22 11:45:08;;;;;;;36.72;21.67;;;14.60;99.90;;;;;;5026708;28;20044;-63
2022/12/22 11:48:51;;;;;;;33.95;27.63;;;14.60;99.90;;;;;;5031692;28;20049;-63
2022/12/22 11:52:20;;;;;;;38.47;27.45;;;14.60;99.90;;;;;;5032200;28;20068;-61
2022/12/22 11:55:36;;;;;;;39.10;25.20;;;14.60;99.90;;;;;;5031612;28;20048;-62
2022/12/22 11:59:17;;;;;;;31.55;22.73;;;14.60;99.90;;;;;;5032124;28;20500;-62
2022/12/22 12:02:38;;;;;;;31.70;23.60;;;14.70;99.90;;;;;;5031930;28;20052;-61
2022/12/22 12:06:17;;;;;;;42.97;28.08;;;14.70;99.90;;;;;;5031652;28;20053;-61
2022/12/22 12:09:27;;;;;;;35.35;25.02;;;14.70;99.90;;;;;;5031515;28;20053;-62
2022/12/22 12:12:31;;;;;;;35.22;21.38;;;14.70;99.90;;;;;;5031496;28;20037;-62
2022/12/22 12:15:41;;;;;;;25.48;17.67;;;14.70;99.90;;;;;;5031954;28;20048;-61
2022/12/22 12:19:08;;;;;;;29.35;20.25;;;14.70;99.90;;;;;;5031516;28;20508;-62
2022/12/22 12:22:29;;;;;;;30.00;21.50;;;14.70;99.90;;;;;;5021194;28;20041;-63
2022/12/22 12:25:45;;;;;;;26.55;19.58;;;14.70;99.90;;;;;;5031421;28;20068;-62
2022/12/22 12:29:14;;;;;;;32.35;21.83;;;14.80;99.90;;;;;;5031664;28;20068;-63
2022/12/22 12:32:24;;;;;;;30.48;21.63;;;14.80;99.90;;;;;;5031705;28;20049;-62
2022/12/22 12:35:31;;;;;;;33.38;22.88;;;14.80;99.90;;;;;;5031719;28;20053;-63
2022/12/22 12:38:57;;;;;;;27.55;18.40;;;14.90;99.90;;;;;;5031214;28;20044;-62
2022/12/22 12:42:32;;;;;;;42.60;26.15;;;14.90;99.90;;;;;;5031189;28;20404;-64
2022/12/22 12:45:41;;;;;;;31.63;20.05;;;14.90;99.90;;;;;;5030887;28;20056;-63
2022/12/22 12:48:45;;;;;;;28.55;18.77;;;15.00;99.90;;;;;;5030785;28;20045;-63
2022/12/22 12:51:49;;;;;;;32.75;20.63;;;15.00;99.90;;;;;;5031304;28;20041;-61
2022/12/22 12:55:19;;;;;;;36.75;21.75;;;15.00;99.90;;;;;;5031063;28;20436;-63
2022/12/22 12:58:38;;;;;;;28.70;18.70;;;15.00;99.90;;;;;;5030783;28;20605;-61
2022/12/22 13:01:42;;;;;;;29.50;18.73;;;15.00;99.90;;;;;;5029565;28;20048;-62
2022/12/22 13:05:12;;;;;;;24.13;16.80;;;15.00;99.90;;;;;;5029086;28;20068;-62
2022/12/22 13:08:22;;;;;;;22.08;15.00;;;15.10;99.90;;;;;;5028893;28;20056;-62
2022/12/22 13:11:30;;;;;;;23.45;16.52;;;15.10;99.90;;;;;;5028792;28;20392;-61
2022/12/22 13:15:00;;;;;;;20.10;15.10;;;15.10;99.90;;;;;;5029520;28;20048;-62
2022/12/22 13:18:33;;;;;;;29.30;17.15;;;15.10;99.90;;;;;;5030621;28;20045;-62
2022/12/22 13:21:44;;;;;;;25.85;17.27;;;15.10;99.90;;;;;;5030629;28;20056;-62
2022/12/22 13:24:48;;;;;;;21.90;15.27;;;15.10;99.90;;;;;;5031125;28;20064;-61
2022/12/22 13:27:54;;;;;;;23.63;15.77;;;15.20;99.90;;;;;;5030514;28;20049;-63
2022/12/22 13:31:32;;;;;;;24.48;16.17;;;15.20;99.90;;;;;;5030875;28;20508;-62
2022/12/22 13:34:45;;;;;;;26.45;17.10;;;15.20;99.90;;;;;;5030668;28;20068;-62
2022/12/22 13:37:52;;;;;;;25.15;18.40;;;15.20;99.90;;;;;;5030343;28;20045;-62
2022/12/22 13:40:58;;;;;;;24.05;17.73;;;15.20;99.90;;;;;;5030365;28;20310;-62
2022/12/22 13:44:06;;;;;;;24.40;16.80;;;15.20;99.90;;;;;;5030339;28;20041;-62
2022/12/22 13:47:13;;;;;;;22.95;16.13;;;15.20;99.90;;;;;;5030275;28;20056;-63
2022/12/22 13:50:29;;;;;;;22.85;16.30;;;15.20;99.90;;;;;;5030513;28;20295;-61
2022/12/22 13:53:40;;;;;;;24.52;17.58;;;15.20;99.90;;;;;;5030377;28;20057;-63
2022/12/22 13:56:50;;;;;;;30.38;19.85;;;15.20;99.90;;;;;;5032472;28;20139;-63
2022/12/22 13:59:54;;;;;;;28.38;20.15;;;15.20;99.90;;;;;;5034281;28;20504;-63
2022/12/22 14:02:58;;;;;;;37.15;21.88;;;15.20;99.90;;;;;;5034091;28;20044;-62
2022/12/22 14:06:16;;;;;;;26.52;20.08;;;15.20;99.90;;;;;;5034102;28;20064;-63
2022/12/22 14:09:25;;;;;;;27.60;18.83;;;15.20;99.90;;;;;;5034021;28;20052;-67
2022/12/22 14:12:38;;;;;;;26.15;18.70;;;15.10;99.90;;;;;;5034107;28;20045;-63
2022/12/22 14:15:43;;;;;;;27.42;20.35;;;15.10;99.90;;;;;;5034037;28;20092;-62
2022/12/22 14:18:47;;;;;;;32.30;22.05;;;15.10;99.90;;;;;;5034086;28;20053;-62
2022/12/22 14:22:07;;;;;;;30.33;21.40;;;15.10;99.90;;;;;;5033981;28;20052;-62
2022/12/22 14:25:29;;;;;;;27.70;19.98;;;15.10;99.90;;;;;;5033845;28;20048;-62
2022/12/22 14:28:42;;;;;;;33.13;21.00;;;15.10;99.90;;;;;;5033462;28;20045;-64
2022/12/22 14:31:59;;;;;;;29.52;19.70;;;15.10;99.90;;;;;;5033706;28;20049;-64
2022/12/22 14:35:24;;;;;;;36.33;21.90;;;15.10;99.90;;;;;;5033607;28;20223;-64
2022/12/22 14:38:28;;;;;;;33.28;21.88;;;15.10;99.90;;;;;;5033555;28;20183;-65
2022/12/22 14:41:51;;;;;;;47.13;21.50;;;15.10;99.90;;;;;;5033924;28;20373;-62
2022/12/22 14:44:55;;;;;;;35.88;22.30;;;15.00;99.90;;;;;;5033364;28;20492;-63
2022/12/22 14:47:59;;;;;;;43.60;28.65;;;15.00;99.90;;;;;;5033107;28;20052;-63
2022/12/22 14:51:04;;;;;;;42.63;30.02;;;15.10;99.90;;;;;;5033226;28;20379;-63
2022/12/22 14:54:19;;;;;;;43.28;28.48;;;15.00;99.90;;;;;;5033183;28;20386;-63
2022/12/22 14:57:39;;;;;;;41.53;24.27;;;15.00;99.90;;;;;;5033093;28;20049;-62
2022/12/22 15:00:47;;;;;;;38.22;21.98;;;15.00;99.90;;;;;;5033118;28;20057;-68
2022/12/22 15:04:18;;;;;;;26.70;19.45;;;15.00;99.90;;;;;;5033098;28;20056;-61
2022/12/22 15:07:22;;;;;;;30.25;20.10;;;15.00;99.90;;;;;;5032247;28;20049;-64
2022/12/22 15:10:32;;;;;;;29.40;19.33;;;15.00;99.90;;;;;;5033059;28;20041;-62
2022/12/22 15:13:36;;;;;;;27.80;18.67;;;15.00;99.90;;;;;;5032658;28;20049;-62
2022/12/22 15:16:41;;;;;;;28.70;17.75;;;15.00;99.90;;;;;;5032883;28;20053;-63
2022/12/22 15:19:45;;;;;;;25.98;20.63;;;15.00;99.90;;;;;;5032485;28;20045;-62
2022/12/22 15:22:49;;;;;;;29.48;20.10;;;15.00;99.90;;;;;;5032644;28;20056;-63
2022/12/22 15:25:53;;;;;;;29.85;21.50;;;15.00;99.90;;;;;;5032638;28;20056;-62
2022/12/22 15:28:57;;;;;;;47.22;29.92;;;15.00;99.90;;;;;;5032445;28;20535;-63
2022/12/22 15:32:01;;;;;;;43.03;29.50;;;15.00;99.90;;;;;;5032591;28;20052;-63
2022/12/22 15:35:27;;;;;;;47.17;30.70;;;14.90;99.90;;;;;;5032722;28;20052;-63
2022/12/22 15:38:31;;;;;;;40.17;27.50;;;14.90;99.90;;;;;;5032318;28;20048;-64
2022/12/22 15:41:35;;;;;;;36.58;26.30;;;14.90;99.90;;;;;;5043025;28;20052;-64
2022/12/22 15:44:39;;;;;;;40.42;28.98;;;14.80;99.90;;;;;;5032328;28;20389;-64
2022/12/22 15:47:47;;;;;;;40.38;26.77;;;14.90;99.90;;;;;;5032111;28;20052;-62
2022/12/22 15:50:53;;;;;;;55.92;31.98;;;14.80;99.90;;;;;;5032358;28;20040;-63
2022/12/22 15:53:58;;;;;;;46.70;30.98;;;14.80;99.90;;;;;;5032220;28;20045;-62
2022/12/22 15:57:03;;;;;;;40.17;28.77;;;14.80;99.90;;;;;;5031712;28;20527;-63
2022/12/22 16:00:10;;;;;;;64.72;35.70;;;14.80;99.90;;;;;;5032239;28;20500;-62
2022/12/22 16:03:14;;;;;;;54.97;37.08;;;14.80;99.90;;;;;;5031882;28;20401;-62
2022/12/22 16:06:18;;;;;;;61.13;36.80;;;14.70;99.90;;;;;;5031793;28;20060;-63
2022/12/22 16:09:26;;;;;;;67.85;40.00;;;14.80;99.90;;;;;;5031829;28;20116;-61
2022/12/22 16:12:31;;;;;;;59.42;39.97;;;14.70;99.90;;;;;;5031829;28;20049;-62
2022/12/22 16:15:35;;;;;;;58.05;39.00;;;14.70;99.90;;;;;;5031347;28;20056;-63
2022/12/22 16:18:39;;;;;;;45.42;34.20;;;14.70;99.90;;;;;;5031290;28;20036;-64
2022/12/22 16:21:48;;;;;;;57.72;38.63;;;14.70;99.90;;;;;;5031674;28;20055;-64
2022/12/22 16:24:52;;;;;;;90.15;52.55;;;14.70;99.90;;;;;;5031556;28;20045;-63
2022/12/22 16:27:56;;;;;;;74.85;46.92;;;14.60;99.90;;;;;;5031472;28;20064;-63
2022/12/22 16:31:01;;;;;;;64.88;42.08;;;14.60;99.90;;;;;;5031091;28;20052;-62
2022/12/22 16:34:05;;;;;;;60.13;40.50;;;14.60;99.90;;;;;;5029387;28;20552;-62
2022/12/22 16:37:09;;;;;;;55.40;36.45;;;14.50;99.90;;;;;;5028903;28;20528;-62
2022/12/22 16:40:14;;;;;;;62.95;42.45;;;14.60;99.90;;;;;;5029429;28;20040;-63
2022/12/22 16:43:21;;;;;;;73.03;46.45;;;14.60;99.90;;;;;;5029163;28;20053;-61
2022/12/22 16:46:25;;;;;;;72.15;44.33;;;14.60;99.90;;;;;;5028998;28;20315;-62
2022/12/22 16:49:29;;;;;;;66.72;42.72;;;14.60;99.90;;;;;;5030755;28;20048;-62
2022/12/22 16:52:37;;;;;;;61.90;41.33;;;14.60;99.90;;;;;;5031221;28;20398;-62
2022/12/22 16:55:42;;;;;;;78.90;46.65;;;14.70;99.90;;;;;;5030635;28;20060;-62
2022/12/22 16:58:47;;;;;;;65.63;46.25;;;14.60;99.90;;;;;;5030691;28;20120;-62
2022/12/22 17:01:55;;;;;;;68.53;46.63;;;14.60;99.90;;;;;;5030756;28;20040;-62
2022/12/22 17:05:00;;;;;;;71.03;48.72;;;14.60;99.90;;;;;;5030831;28;20045;-62
2022/12/22 17:08:14;;;;;;;78.22;49.47;;;14.60;99.90;;;;;;5030411;28;20048;-61
2022/12/22 17:11:23;;;;;;;67.05;46.10;;;14.60;99.90;;;;;;5030935;28;20040;-61
2022/12/22 17:14:31;;;;;;;76.80;51.72;;;14.70;99.90;;;;;;5030853;28;20076;-62
2022/12/22 17:17:35;;;;;;;86.45;56.15;;;14.60;99.90;;;;;;5030936;28;20499;-62
2022/12/22 17:20:40;;;;;;;80.68;54.55;;;14.50;99.90;;;;;;5030691;28;20369;-61
2022/12/22 17:23:53;;;;;;;81.82;53.85;;;14.50;99.90;;;;;;5030483;28;20052;-62
2022/12/22 17:27:04;;;;;;;83.28;55.03;;;14.50;99.90;;;;;;5030409;28;20303;-62
2022/12/22 17:30:17;;;;;;;89.03;59.03;;;14.50;99.90;;;;;;5029555;28;20504;-62
2022/12/22 17:33:20;;;;;;;80.22;56.58;;;14.50;99.90;;;;;;5034642;28;20048;-61
2022/12/22 17:36:45;;;;;;;79.82;57.33;;;14.50;99.90;;;;;;5034748;28;20044;-61
2022/12/22 17:39:54;;;;;;;85.50;60.50;;;14.50;99.90;;;;;;5034830;28;20048;-62
2022/12/22 17:42:58;;;;;;;90.95;60.08;;;14.50;99.90;;;;;;5034726;28;20053;-61
2022/12/22 17:46:02;;;;;;;94.22;61.45;;;14.50;99.90;;;;;;5034236;28;20045;-62
2022/12/22 17:49:06;;;;;;;92.88;61.03;;;14.50;99.90;;;;;;5034263;28;20044;-68
2022/12/22 17:52:22;;;;;;;88.20;57.72;;;14.50;99.90;;;;;;5034612;28;20381;-67
2022/12/22 17:55:28;;;;;;;80.07;57.38;;;14.50;99.90;;;;;;5034269;28;20536;-68
2022/12/22 17:58:33;;;;;;;79.22;55.20;;;;;;;;;;5032879;28;20277;-69
2022/12/22 18:01:38;;;;;;;76.63;52.65;;;;;;;;;;5032648;28;20508;-69
2022/12/22 18:04:43;;;;;;;52.33;34.50;;;;;;;;;;5033800;28;20044;-69
2022/12/22 18:07:48;;;;;;;48.78;34.42;;;;;;;;;;5032178;28;20052;-69
2022/12/22 18:10:52;;;;;;;49.67;36.67;;;;;;;;;;5031967;28;20041;-70
2022/12/22 18:13:58;;;;;;;66.25;41.83;;;;;;;;;;5042668;28;20049;-67
2022/12/22 18:17:02;;;;;;;61.40;42.65;;;;;;;;;;5032005;28;20044;-69
2022/12/22 18:20:11;;;;;;;63.15;46.50;;;14.80;99.90;;;;;;5032065;28;20045;-68
2022/12/22 18:23:27;;;;;;;66.75;44.83;;;14.70;99.90;;;;;;5033497;28;20040;-68
2022/12/22 18:26:31;;;;;;;60.53;44.80;;;14.50;99.90;;;;;;5033628;28;20052;-69
2022/12/22 18:29:35;;;;;;;67.20;48.63;;;14.40;99.90;;;;;;5033534;28;20056;-69
2022/12/22 18:32:39;;;;;;;70.55;48.83;;;14.40;99.90;;;;;;5033751;28;20215;-68
2022/12/22 18:35:43;;;;;;;81.57;55.53;;;14.40;99.90;;;;;;5033437;28;20444;-66
2022/12/22 18:38:48;;;;;;;68.05;45.38;;;14.40;99.90;;;;;;5033021;28;20044;-67
2022/12/22 18:41:53;;;;;;;53.58;35.88;;;14.40;99.90;;;;;;5032951;28;20073;-69
2022/12/22 18:44:56;;;;;;;47.45;35.80;;;14.30;99.90;;;;;;5033728;28;20040;-69
2022/12/22 18:48:00;;;;;;;49.28;34.47;;;14.20;99.90;;;;;;5033411;28;20052;-69
2022/12/22 18:51:06;;;;;;;49.92;33.60;;;14.20;99.90;;;;;;5033185;28;20512;-69
2022/12/22 18:54:35;;;;;;;52.92;38.47;;;14.20;99.90;;;;;;5033026;28;20048;-69
2022/12/22 18:57:41;;;;;;;60.63;36.83;;;14.20;99.90;;;;;;5033048;28;20061;-69
2022/12/22 19:00:46;;;;;;;49.22;32.63;;;14.20;99.90;;;;;;5043327;28;20101;-69
2022/12/22 19:03:54;;;;;;;58.33;38.60;;;14.20;99.90;;;;;;5032943;28;20044;-69
2022/12/22 19:06:58;;;;;;;52.13;36.45;;;14.20;99.90;;;;;;5032761;28;20040;-69
2022/12/22 19:10:02;;;;;;;59.25;41.22;;;14.10;99.90;;;;;;5033121;28;20048;-69
2022/12/22 19:13:13;;;;;;;55.80;38.60;;;14.10;99.90;;;;;;5032798;28;20068;-69
2022/12/22 19:16:23;;;;;;;63.30;44.20;;;14.10;99.90;;;;;;5032487;28;20151;-69
2022/12/22 19:19:26;;;;;;;66.25;43.75;;;14.10;99.90;;;;;;5033026;28;20053;-69
2022/12/22 19:22:30;;;;;;;61.50;40.83;;;14.10;99.90;;;;;;5032634;28;20041;-69
2022/12/22 19:25:34;;;;;;;57.05;41.75;;;14.20;99.90;;;;;;5032802;28;20060;-67
2022/12/22 19:28:41;;;;;;;68.82;43.05;;;14.10;99.90;;;;;;5032269;28;20417;-67
2022/12/22 19:31:45;;;;;;;62.35;43.85;;;14.20;99.90;;;;;;5032654;28;20048;-68
2022/12/22 19:34:50;;;;;;;60.38;41.10;;;14.10;99.90;;;;;;5032608;28;20064;-68
2022/12/22 19:37:54;;;;;;;62.75;42.10;;;14.10;99.90;;;;;;5032414;28;20056;-68
2022/12/22 19:41:00;;;;;;;62.97;44.92;;;14.10;99.90;;;;;;5032056;28;20636;-68
2022/12/22 19:44:04;;;;;;;66.28;48.35;;;14.00;99.90;;;;;;5031981;28;20048;-68
2022/12/22 19:47:19;;;;;;;69.22;46.33;;;14.00;99.90;;;;;;5031394;28;20048;-66
2022/12/22 19:50:29;;;;;;;71.65;48.67;;;14.00;99.90;;;;;;5031933;28;20053;-68
2022/12/22 19:53:33;;;;;;;78.45;50.40;;;14.10;99.90;;;;;;5031524;28;20227;-68
2022/12/22 19:56:38;;;;;;;71.32;47.78;;;14.00;99.90;;;;;;5031221;28;20409;-66
2022/12/22 19:59:46;;;;;;;68.68;47.63;;;14.00;99.90;;;;;;5031908;28;20036;-67
2022/12/22 20:02:52;;;;;;;77.53;49.40;;;14.00;99.90;;;;;;5031704;28;20517;-66